Accueil
METAR-TAF:

METAR-TAF

Aéroports :

St Athan, Pays de Galles

latitude: 51-24N, longitude: 003-26W, altitude: 50 m

Observation

Le bulletin a été fait il y a 1 heure et 13 minutes, à 13:50 UTC
Vent 9 kt de sud
Température 16°C
Humidité 72%
Pression 1019 hPa
Visibilité 10 km ou plus
Nuages épars à une hauteur de 3100 ft
Nuages fragmentés à une hauteur de 4000 ft

METAR: EGDX 221350Z 19009KT 9999 SCT031 BKN040 16/11 Q1019 BLU

Heure: 16:03 (15:03 UTC)

Prévision

Le bulletin a été fait il y a 1 heure et 27 minutes, à 13:36 UTC
Prévision valable du 22 à 15 UTC au 22 à 18 UTC
Vent 10 kt de sud
Visibilité 10 km ou plus
Nuages fragmentés à une hauteur de 1800 ft
Probabilité 30% :
Temporairement
du 22 à 15 UTC au 22 à 18 UTC
Visibilité: 6000 m
Nuages épars à une hauteur de 1200 ft
pluie

TAF: EGDX 221336Z 2215/2218 19010KT 9999 BKN018 PROB30 TEMPO 2215/2218 6000 RA SCT012

Observations et prévisions météorologiques de plus de 4000 aéroports (messages METAR et TAF).

Les stations disponibles sont représentées par des disques jaunes et rouges sur la carte.

Passer la souris dessus pour voir le nom de la station.

Cliquer dessus pour voir les observations et prévisions météorologiques.

Pour changer de carte: cliquez sur les boutons verts avec une croix noire pour zoomer, sur le bouton vert avec un tiret pour effectuer un zoom arrière, ou sur les flèches vertes pour les cartes adjacentes.


METAR-TAF: